Time;durP1;ratioP1;P1;durP2;ratioP2;P2;SDS_P1;SDS_P2;PMS_P1;PMS_P2;Temp;Humidity;BMP_temperature;BMP_pressure;BME280_temperature;BME280_humidity;BME280_pressure;Samples;Min_cycle;Max_cycle;Signal;HPM_P1;HPM_P2
2022/03/12 00:00:09;;;;;;;12.98;6.88;;;;;;;;;;5090882;28;20052;-65
2022/03/12 00:02:35;;;;;;;9.98;6.35;;;;;;;;;;5090506;28;20051;-65
2022/03/12 00:05:07;;;;;;;12.02;6.30;;;;;;;;;;5091092;28;20470;-65
2022/03/12 00:07:33;;;;;;;13.65;7.07;;;;;;;;;;5090968;28;20043;-65
2022/03/12 00:10:00;;;;;;;8.52;5.72;;;;;;;;;;5090394;28;20070;-65
2022/03/12 00:12:30;;;;;;;9.15;6.32;;;;;;;;;;5090970;28;20476;-65
2022/03/12 00:14:57;;;;;;;11.98;5.78;;;;;;;;;;5090756;28;20046;-65
2022/03/12 00:17:25;;;;;;;8.35;5.97;;;;;;;;;;5088893;28;20351;-65
2022/03/12 00:19:51;;;;;;;14.68;6.03;;;;;;;;;;5090816;28;20386;-65
2022/03/12 00:22:17;;;;;;;11.00;5.93;;;;;;;;;;5090911;28;20039;-65
2022/03/12 00:24:45;;;;;;;10.77;5.63;;;;;;;;;;5090137;28;20093;-65
2022/03/12 00:27:11;;;;;;;8.57;5.90;;;;;;;;;;5090372;28;20044;-65
2022/03/12 00:29:37;;;;;;;10.27;6.35;;;;;;;;;;5047842;28;1210925;-65
2022/03/12 00:32:04;;;;;;;11.35;6.10;;;;;;;;;;5091488;28;20071;-65
2022/03/12 00:34:31;;;;;;;8.43;6.00;;;;;;;;;;5076348;28;20075;-65
2022/03/12 00:36:57;;;;;;;17.23;6.50;;;;;;;;;;5071267;28;20494;-65
2022/03/12 00:39:23;;;;;;;8.02;5.65;;;;;;;;;;5071043;28;20041;-65
2022/03/12 00:41:49;;;;;;;11.23;6.07;;;;;;;;;;5070657;28;20117;-65
2022/03/12 00:44:19;;;;;;;11.65;6.05;;;;;;;;;;5071127;28;20036;-65
2022/03/12 00:46:46;;;;;;;12.43;6.05;;;;;;;;;;5071304;28;20399;-65
2022/03/12 00:49:12;;;;;;;11.15;6.22;;;;;;;;;;5070295;28;20124;-65
2022/03/12 00:51:39;;;;;;;11.07;6.28;;;;;;;;;;5071110;28;20399;-65
2022/03/12 00:54:05;;;;;;;10.45;6.25;;;;;;;;;;5071034;28;20037;-65
2022/03/12 00:56:31;;;;;;;9.82;5.65;;;;;;;;;;5070065;28;20044;-65
2022/03/12 00:58:58;;;;;;;9.95;6.18;;;;;;;;;;5071238;28;20115;-65
2022/03/12 01:01:25;;;;;;;9.23;5.78;;;;;;;;;;5071156;28;20731;-65
2022/03/12 01:03:51;;;;;;;10.98;6.30;;;;;;;;;;5070024;28;20040;-65
2022/03/12 01:06:18;;;;;;;8.52;5.97;;;;;;;;;;5070993;28;20041;-65
2022/03/12 01:08:45;;;;;;;13.85;6.60;;;;;;;;;;5071074;28;20115;-65
2022/03/12 01:11:11;;;;;;;12.82;6.18;;;;;;;;;;5070332;28;20090;-65
2022/03/12 01:13:38;;;;;;;10.30;6.18;;;;;;;;;;5071074;28;20044;-65
2022/03/12 01:16:05;;;;;;;9.68;5.95;;;;;;;;;;5070891;28;20396;-65
2022/03/12 01:18:31;;;;;;;9.32;6.28;;;;;;;;;;5070084;28;20036;-65
2022/03/12 01:21:07;;;;;;;9.70;6.80;;;;;;;;;;5070970;28;20499;-65
2022/03/12 01:23:33;;;;;;;10.88;6.20;;;;;;;;;;5070881;28;20459;-65
2022/03/12 01:25:59;;;;;;;9.40;6.07;;;;;;;;;;5069984;28;20040;-66
2022/03/12 01:28:25;;;;;;;8.93;5.57;;;;;;;;;;5071796;28;20123;-65
2022/03/12 01:30:54;;;;;;;14.18;6.82;;;;;;;;;;5074020;28;20048;-65
2022/03/12 01:33:20;;;;;;;11.48;6.82;;;;;;;;;;5078663;28;20115;-65
2022/03/12 01:35:46;;;;;;;10.35;6.40;;;;;;;;;;5094547;28;20039;-65
2022/03/12 01:38:13;;;;;;;10.23;6.50;;;;;;;;;;5094357;28;20032;-65
2022/03/12 01:40:39;;;;;;;8.32;6.05;;;;;;;;;;5093920;28;20371;-65
2022/03/12 01:43:05;;;;;;;14.25;6.60;;;;;;;;;;5094507;28;20127;-65
2022/03/12 01:45:33;;;;;;;10.80;6.32;;;;;;;;;;5094436;28;20044;-65
2022/03/12 01:48:01;;;;;;;9.75;5.68;;;;;;;;;;5093700;28;20460;-65
2022/03/12 01:50:32;;;;;;;11.88;6.70;;;;;;;;;;5094246;28;20532;-65
2022/03/12 01:52:59;;;;;;;13.27;6.18;;;;;;;;;;5094207;28;20036;-65
2022/03/12 01:55:30;;;;;;;10.30;6.57;;;;;;;;;;5093403;28;20482;-65
2022/03/12 01:57:57;;;;;;;10.60;5.93;;;;;;;;;;5094327;28;20410;-65
2022/03/12 02:00:24;;;;;;;10.40;5.97;;;;;;;;;;5094214;28;20040;-65
2022/03/12 02:02:54;;;;;;;10.02;6.18;;;;;;;;;;5093276;28;20093;-65
2022/03/12 02:05:27;;;;;;;11.35;6.22;;;;;;;;;;5093925;28;20075;-65
2022/03/12 02:07:53;;;;;;;9.95;6.60;;;;;;;;;;5093953;28;20040;-65
2022/03/12 02:10:20;;;;;;;12.13;6.38;;;;;;;;;;5093266;28;20040;-65
2022/03/12 02:12:46;;;;;;;10.05;6.60;;;;;;;;;;5093985;28;20044;-65
2022/03/12 02:15:12;;;;;;;9.40;5.88;;;;;;;;;;5093763;28;20090;-65
2022/03/12 02:17:38;;;;;;;10.93;6.30;;;;;;;;;;5093018;28;20072;-65
2022/03/12 02:20:05;;;;;;;11.65;6.38;;;;;;;;;;5093678;28;20043;-65
2022/03/12 02:22:32;;;;;;;9.73;6.40;;;;;;;;;;5093566;28;20373;-65
2022/03/12 02:24:58;;;;;;;14.15;6.82;;;;;;;;;;5092845;28;20046;-65
2022/03/12 02:27:25;;;;;;;11.27;6.07;;;;;;;;;;5093075;28;20537;-65
2022/03/12 02:29:52;;;;;;;11.30;6.43;;;;;;;;;;5093545;28;20064;-65
2022/03/12 02:32:18;;;;;;;14.65;6.88;;;;;;;;;;5092898;28;20089;-65
2022/03/12 02:34:46;;;;;;;11.88;6.20;;;;;;;;;;5076678;28;20116;-65
2022/03/12 02:37:12;;;;;;;11.00;6.45;;;;;;;;;;5073030;28;20124;-65
2022/03/12 02:39:39;;;;;;;12.20;6.13;;;;;;;;;;5071724;28;20044;-65
2022/03/12 02:42:06;;;;;;;9.98;6.82;;;;;;;;;;5073004;28;20041;-65
2022/03/12 02:44:33;;;;;;;10.48;6.57;;;;;;;;;;5071783;28;20048;-65
2022/03/12 02:47:14;;;;;;;10.25;6.38;;;;;;;;;;5072169;28;20036;-65
2022/03/12 02:49:43;;;;;;;11.02;6.53;;;;;;;;;;5072915;28;20718;-65
2022/03/12 02:52:09;;;;;;;11.20;6.25;;;;;;;;;;5072719;28;20075;-65
2022/03/12 02:54:36;;;;;;;10.68;5.97;;;;;;;;;;5072159;28;20063;-65
2022/03/12 02:57:02;;;;;;;11.30;6.40;;;;;;;;;;5072612;28;20048;-65
2022/03/12 02:59:29;;;;;;;12.65;6.85;;;;;;;;;;5071558;28;20036;-65
2022/03/12 03:02:00;;;;;;;9.65;6.07;;;;;;;;;;5071631;28;20048;-65
2022/03/12 03:04:26;;;;;;;9.77;6.15;;;;;;;;;;5072479;28;20049;-65
2022/03/12 03:06:52;;;;;;;12.05;6.43;;;;;;;;;;5072199;28;20036;-65
2022/03/12 03:09:18;;;;;;;11.65;7.35;;;;;;;;;;5071405;28;20044;-65
2022/03/12 03:11:44;;;;;;;10.07;6.38;;;;;;;;;;5072489;28;20044;-65
2022/03/12 03:14:12;;;;;;;11.88;6.80;;;;;;;;;;5072506;28;20434;-65
2022/03/12 03:16:39;;;;;;;9.80;6.35;;;;;;;;;;5071525;28;20113;-65
2022/03/12 03:19:05;;;;;;;11.90;6.60;;;;;;;;;;5072020;28;20047;-65
2022/03/12 03:21:33;;;;;;;12.48;6.18;;;;;;;;;;5072109;28;20048;-65
2022/03/12 03:24:00;;;;;;;12.07;6.32;;;;;;;;;;5071334;28;20112;-65
2022/03/12 03:26:38;;;;;;;9.77;6.55;;;;;;;;;;5070495;28;20044;-65
2022/03/12 03:29:05;;;;;;;11.85;6.43;;;;;;;;;;5072023;28;20040;-65
2022/03/12 03:31:31;;;;;;;11.75;6.68;;;;;;;;;;5071078;28;20048;-65
2022/03/12 03:33:57;;;;;;;7.97;5.75;;;;;;;;;;5082163;28;20059;-65
2022/03/12 03:36:23;;;;;;;11.02;6.30;;;;;;;;;;5092313;28;20038;-65
2022/03/12 03:38:49;;;;;;;10.07;6.55;;;;;;;;;;5091663;28;20036;-65
2022/03/12 03:41:15;;;;;;;10.95;6.47;;;;;;;;;;5092237;28;20047;-65
2022/03/12 03:43:45;;;;;;;11.57;6.55;;;;;;;;;;5092177;28;20032;-65
2022/03/12 03:46:11;;;;;;;8.25;6.57;;;;;;;;;;5091350;28;20042;-65
2022/03/12 03:48:38;;;;;;;10.43;6.40;;;;;;;;;;5091972;28;20347;-65
2022/03/12 03:51:04;;;;;;;9.77;6.78;;;;;;;;;;5091669;28;20040;-65
2022/03/12 03:53:31;;;;;;;9.05;6.30;;;;;;;;;;5091380;28;20044;-65
2022/03/12 03:56:00;;;;;;;11.48;6.07;;;;;;;;;;5091986;28;20046;-65
2022/03/12 03:58:26;;;;;;;11.60;6.20;;;;;;;;;;5091618;28;20046;-65
2022/03/12 04:00:55;;;;;;;12.60;6.50;;;;;;;;;;5091266;28;20036;-65
2022/03/12 04:03:21;;;;;;;9.70;6.35;;;;;;;;;;5091757;28;20051;-65
2022/03/12 04:05:47;;;;;;;9.93;5.97;;;;;;;;;;5091711;28;20054;-65
2022/03/12 04:08:13;;;;;;;13.00;6.90;;;;;;;;;;5090641;28;20042;-65
2022/03/12 04:10:39;;;;;;;10.77;6.53;;;;;;;;;;5091848;28;20036;-65
2022/03/12 04:13:11;;;;;;;12.82;6.90;;;;;;;;;;5091877;28;20539;-65
2022/03/12 04:15:37;;;;;;;13.50;6.93;;;;;;;;;;5091060;28;20097;-65
2022/03/12 04:18:05;;;;;;;10.93;6.85;;;;;;;;;;5091789;28;20274;-65
2022/03/12 04:20:31;;;;;;;11.63;6.82;;;;;;;;;;5091630;28;20048;-65
2022/03/12 04:22:57;;;;;;;9.98;6.97;;;;;;;;;;5090662;28;20048;-65
2022/03/12 04:25:24;;;;;;;10.15;6.57;;;;;;;;;;5091543;28;20072;-65
2022/03/12 04:27:50;;;;;;;10.20;6.80;;;;;;;;;;5091135;28;20048;-65
2022/03/12 04:30:18;;;;;;;11.15;7.05;;;;;;;;;;5090640;28;20056;-65
2022/03/12 04:32:45;;;;;;;11.30;6.63;;;;;;;;;;5091464;28;20508;-65
2022/03/12 04:35:11;;;;;;;10.90;6.43;;;;;;;;;;5071281;28;20067;-65
2022/03/12 04:37:37;;;;;;;12.00;6.80;;;;;;;;;;5070498;28;20098;-65
2022/03/12 04:40:08;;;;;;;12.00;6.72;;;;;;;;;;5071263;28;20429;-65
2022/03/12 04:42:36;;;;;;;11.90;6.63;;;;;;;;;;5071023;28;20106;-65
2022/03/12 04:45:02;;;;;;;11.98;7.45;;;;;;;;;;5070360;28;20036;-65
2022/03/12 04:47:28;;;;;;;12.07;6.82;;;;;;;;;;5070904;28;20498;-65
2022/03/12 04:49:54;;;;;;;9.38;6.30;;;;;;;;;;5071215;28;20039;-65
2022/03/12 04:52:20;;;;;;;11.50;6.65;;;;;;;;;;5069423;28;20442;-65
2022/03/12 04:54:46;;;;;;;9.23;6.47;;;;;;;;;;5071180;28;20120;-65
2022/03/12 04:57:12;;;;;;;11.68;7.10;;;;;;;;;;5071004;28;20090;-65
2022/03/12 04:59:38;;;;;;;11.38;7.07;;;;;;;;;;5070315;28;20076;-65
2022/03/12 05:02:06;;;;;;;8.73;6.30;;;;;;;;;;5071023;28;20349;-65
2022/03/12 05:04:32;;;;;;;11.23;6.88;;;;;;;;;;5073928;28;20068;-65
2022/03/12 05:06:58;;;;;;;13.32;6.43;;;;;;;;;;5074022;28;20044;-65
2022/03/12 05:09:24;;;;;;;11.18;6.78;;;;;;;;;;5074825;28;20045;-65
2022/03/12 05:11:50;;;;;;;12.65;7.00;;;;;;;;;;5074708;28;20093;-65
2022/03/12 05:14:17;;;;;;;11.45;7.45;;;;;;;;;;5073898;28;20476;-65
2022/03/12 05:16:45;;;;;;;11.75;7.22;;;;;;;;;;5074585;28;20482;-65
2022/03/12 05:19:13;;;;;;;11.25;6.65;;;;;;;;;;5074596;28;20048;-65
2022/03/12 05:21:39;;;;;;;12.90;6.68;;;;;;;;;;5073829;28;20046;-65
2022/03/12 05:24:05;;;;;;;9.82;6.22;;;;;;;;;;5074222;28;20154;-65
2022/03/12 05:26:31;;;;;;;10.52;6.78;;;;;;;;;;5074467;28;20383;-65
2022/03/12 05:28:57;;;;;;;10.90;6.88;;;;;;;;;;5073625;28;20040;-65
2022/03/12 05:31:24;;;;;;;11.30;6.80;;;;;;;;;;5074175;28;20429;-65
2022/03/12 05:33:50;;;;;;;12.73;6.70;;;;;;;;;;5083122;28;20513;-65
2022/03/12 05:36:16;;;;;;;9.82;6.72;;;;;;;;;;5093879;28;20044;-65
2022/03/12 05:38:42;;;;;;;9.85;6.72;;;;;;;;;;5094589;28;20093;-65
2022/03/12 05:41:12;;;;;;;10.23;7.00;;;;;;;;;;5094589;28;20122;-65
2022/03/12 05:43:45;;;;;;;12.18;6.90;;;;;;;;;;5093489;28;20051;-65
2022/03/12 05:46:15;;;;;;;11.70;6.63;;;;;;;;;;5094331;28;20048;-65
2022/03/12 05:48:41;;;;;;;12.60;6.85;;;;;;;;;;5094169;28;20040;-65
2022/03/12 05:51:09;;;;;;;9.35;6.28;;;;;;;;;;5093721;28;20036;-65
2022/03/12 05:53:36;;;;;;;10.45;6.43;;;;;;;;;;5094348;28;20028;-65
2022/03/12 05:56:02;;;;;;;11.70;6.63;;;;;;;;;;5094321;28;20078;-65
2022/03/12 05:58:28;;;;;;;12.05;6.47;;;;;;;;;;5093421;28;20044;-65
2022/03/12 06:00:55;;;;;;;11.88;6.35;;;;;;;;;;5094193;28;20070;-65
2022/03/12 06:03:23;;;;;;;11.75;6.85;;;;;;;;;;5094094;28;20040;-65
2022/03/12 06:05:54;;;;;;;11.15;6.30;;;;;;;;;;5093124;28;20170;-65
2022/03/12 06:08:23;;;;;;;10.40;7.07;;;;;;;;;;5093806;28;20411;-65
2022/03/12 06:10:54;;;;;;;9.98;6.82;;;;;;;;;;5093963;28;20128;-65
2022/03/12 06:13:23;;;;;;;9.20;6.50;;;;;;;;;;5093223;28;20043;-65
2022/03/12 06:15:55;;;;;;;10.55;6.93;;;;;;;;;;5093594;28;20048;-65
2022/03/12 06:18:24;;;;;;;9.43;6.55;;;;;;;;;;5093460;28;20062;-65
2022/03/12 06:20:50;;;;;;;11.73;7.18;;;;;;;;;;5092909;28;20035;-65
2022/03/12 06:23:16;;;;;;;11.50;6.88;;;;;;;;;;5093393;28;20032;-65
2022/03/12 06:25:42;;;;;;;11.90;6.90;;;;;;;;;;5093608;28;20047;-65
2022/03/12 06:28:08;;;;;;;11.88;7.03;;;;;;;;;;5092931;28;20383;-65
2022/03/12 06:30:34;;;;;;;11.80;6.80;;;;;;;;;;5093135;28;20060;-65
2022/03/12 06:33:00;;;;;;;11.75;7.03;;;;;;;;;;5091042;28;20051;-65
2022/03/12 06:35:27;;;;;;;11.75;6.78;;;;;;;;;;5072480;28;20045;-65
2022/03/12 06:37:55;;;;;;;10.55;6.85;;;;;;;;;;5072878;28;20076;-65
2022/03/12 06:40:21;;;;;;;14.15;7.60;;;;;;;;;;5071742;28;20048;-65
2022/03/12 06:42:51;;;;;;;15.40;7.03;;;;;;;;;;5071977;28;20045;-65
2022/03/12 06:45:17;;;;;;;12.60;6.70;;;;;;;;;;5072848;28;20132;-65
2022/03/12 06:47:44;;;;;;;12.93;6.93;;;;;;;;;;5072913;28;20037;-65
2022/03/12 06:50:13;;;;;;;12.52;7.53;;;;;;;;;;5072195;28;20414;-65
2022/03/12 06:52:43;;;;;;;9.80;6.55;;;;;;;;;;5072818;28;20072;-65
2022/03/12 06:55:10;;;;;;;13.55;7.32;;;;;;;;;;5072759;28;20045;-65
2022/03/12 06:57:36;;;;;;;11.93;7.38;;;;;;;;;;5071769;28;20036;-65
2022/03/12 07:00:04;;;;;;;11.40;6.70;;;;;;;;;;5071471;28;20533;-65
2022/03/12 07:02:30;;;;;;;10.18;6.70;;;;;;;;;;5072655;28;20044;-65
2022/03/12 07:04:56;;;;;;;11.40;6.80;;;;;;;;;;5071967;28;20044;-65
2022/03/12 07:07:22;;;;;;;11.95;6.70;;;;;;;;;;5072597;28;20392;-65
2022/03/12 07:09:48;;;;;;;13.85;6.72;;;;;;;;;;5072398;28;20044;-65
2022/03/12 07:12:14;;;;;;;9.88;6.82;;;;;;;;;;5071857;28;20409;-65
2022/03/12 07:14:41;;;;;;;12.27;6.72;;;;;;;;;;5072402;28;20063;-65
2022/03/12 07:17:07;;;;;;;19.25;6.90;;;;;;;;;;5072176;28;20090;-65
2022/03/12 07:19:33;;;;;;;14.57;7.07;;;;;;;;;;5071803;28;20421;-65
2022/03/12 07:21:59;;;;;;;12.45;6.78;;;;;;;;;;5072138;28;20039;-65
2022/03/12 07:24:26;;;;;;;10.30;7.13;;;;;;;;;;5072228;28;20032;-65
2022/03/12 07:26:52;;;;;;;11.18;6.55;;;;;;;;;;5070596;28;20045;-65
2022/03/12 07:29:18;;;;;;;12.23;6.65;;;;;;;;;;5071773;28;20086;-65
2022/03/12 07:31:44;;;;;;;14.98;7.13;;;;;;;;;;5072040;28;20044;-65
2022/03/12 07:34:10;;;;;;;12.07;7.18;;;;;;;;;;5083242;28;20040;-65
2022/03/12 07:36:36;;;;;;;12.63;7.18;;;;;;;;;;5092245;28;20119;-65
2022/03/12 07:39:03;;;;;;;12.32;6.93;;;;;;;;;;5092440;28;20050;-65
2022/03/12 07:41:30;;;;;;;11.00;6.70;;;;;;;;;;5091517;28;20075;-65
2022/03/12 07:43:56;;;;;;;13.50;6.90;;;;;;;;;;5092047;28;20429;-65
2022/03/12 07:46:22;;;;;;;8.88;5.88;;;;;;;;;;5091939;28;20479;-65
2022/03/12 07:48:49;;;;;;;15.48;8.20;;;;;;;;;;5091047;28;20043;-65
2022/03/12 07:51:15;;;;;;;14.57;7.75;;;;;;;;;;5092132;28;20044;-65
2022/03/12 07:53:42;;;;;;;13.75;7.65;;;;;;;;;;5092093;28;20177;-65
2022/03/12 07:56:09;;;;;;;9.73;6.88;;;;;;;;;;5091466;28;20032;-65
2022/03/12 07:58:36;;;;;;;12.55;7.50;;;;;;;;;;5091556;28;20043;-65
2022/03/12 08:01:03;;;;;;;12.45;7.13;;;;;;;;;;5091705;28;20129;-65
2022/03/12 08:03:29;;;;;;;14.68;7.78;;;;;;;;;;5091848;28;20044;-65
2022/03/12 08:05:56;;;;;;;12.10;7.15;;;;;;;;;;5091251;28;20051;-66
2022/03/12 08:08:22;;;;;;;13.82;8.00;;;;;;;;;;5091528;28;20044;-65
2022/03/12 08:13:32;;;;;;;13.90;8.05;;;;;;;;;;5091711;28;20039;-65
2022/03/12 08:15:59;;;;;;;13.65;7.65;;;;;;;;;;5091531;28;20036;-65
2022/03/12 08:18:25;;;;;;;13.30;8.25;;;;;;;;;;5090986;28;20055;-65
2022/03/12 08:20:52;;;;;;;13.30;7.68;;;;;;;;;;5091768;28;20459;-65
2022/03/12 08:23:18;;;;;;;13.43;7.93;;;;;;;;;;5091657;28;20044;-65
2022/03/12 08:25:44;;;;;;;14.13;8.30;;;;;;;;;;5090943;28;20040;-65
2022/03/12 08:28:10;;;;;;;20.40;8.60;;;;;;;;;;5091107;28;20097;-65
2022/03/12 08:30:37;;;;;;;12.30;8.13;;;;;;;;;;5091236;28;20092;-66
2022/03/12 08:33:03;;;;;;;14.80;9.32;;;;;;;;;;5088727;28;20038;-65
2022/03/12 08:35:30;;;;;;;13.75;8.85;;;;;;;;;;5070324;28;20044;-65
2022/03/12 08:37:56;;;;;;;14.20;8.50;;;;;;;;;;5071802;28;20076;-65
2022/03/12 08:40:25;;;;;;;13.50;8.40;;;;;;;;;;5075339;28;20040;-65
2022/03/12 08:42:51;;;;;;;14.55;9.02;;;;;;;;;;5073347;28;20055;-65
2022/03/12 08:45:18;;;;;;;16.55;8.75;;;;;;;;;;5075181;28;20036;-65
2022/03/12 08:47:44;;;;;;;16.83;8.73;;;;;;;;;;5075245;28;20083;-65
2022/03/12 08:50:11;;;;;;;16.63;8.65;;;;;;;;;;5074318;28;20041;-65
2022/03/12 08:52:38;;;;;;;18.48;9.20;;;;;;;;;;5074868;28;20036;-65
2022/03/12 08:55:05;;;;;;;18.23;8.98;;;;;;;;;;5074749;28;20039;-66
2022/03/12 08:57:31;;;;;;;18.17;9.20;;;;;;;;;;5074360;28;20043;-65
2022/03/12 08:59:57;;;;;;;15.18;8.75;;;;;;;;;;5075027;28;20048;-65
2022/03/12 09:02:23;;;;;;;12.90;8.70;;;;;;;;;;5074844;28;20040;-65
2022/03/12 09:04:49;;;;;;;18.00;9.75;;;;;;;;;;5074184;28;20080;-65
2022/03/12 09:07:15;;;;;;;15.43;9.18;;;;;;;;;;5074858;28;20044;-65
2022/03/12 09:09:41;;;;;;;14.30;9.15;;;;;;;;;;5074901;28;20402;-65
2022/03/12 09:12:08;;;;;;;18.48;9.45;;;;;;;;;;5074225;28;20070;-65
2022/03/12 09:14:35;;;;;;;17.83;9.82;;;;;;;;;;5074715;28;20095;-65
2022/03/12 09:17:04;;;;;;;15.30;9.57;;;;;;;;;;5074654;28;20384;-65
2022/03/12 09:19:32;;;;;;;17.52;9.52;;;;;;;;;;5073984;28;20052;-65
2022/03/12 09:21:58;;;;;;;14.80;9.02;;;;;;;;;;5074593;28;20403;-65
2022/03/12 09:24:24;;;;;;;14.57;9.20;;;;;;;;;;5074718;28;20055;-65
2022/03/12 09:26:51;;;;;;;15.70;9.20;;;;;;;;;;5073763;28;20047;-65
2022/03/12 09:29:17;;;;;;;14.15;9.57;;;;;;;;;;5074468;28;20059;-65
2022/03/12 09:31:43;;;;;;;15.98;9.05;;;;;;;;;;5074382;28;20056;-65
2022/03/12 09:34:09;;;;;;;14.43;8.68;;;;;;;;;;5085293;28;20040;-65
2022/03/12 09:36:36;;;;;;;14.90;9.85;;;;;;;;;;5094229;28;20524;-65
2022/03/12 09:39:04;;;;;;;17.35;9.68;;;;;;;;;;5094582;28;20051;-65
2022/03/12 09:41:30;;;;;;;17.98;9.85;;;;;;;;;;5093842;28;20040;-65
2022/03/12 09:43:57;;;;;;;14.32;9.15;;;;;;;;;;5094286;28;20555;-65
2022/03/12 09:46:23;;;;;;;13.85;9.27;;;;;;;;;;5094267;28;20040;-65
2022/03/12 09:48:49;;;;;;;20.17;9.30;;;;;;;;;;5093384;28;20043;-65
2022/03/12 09:51:15;;;;;;;12.30;9.07;;;;;;;;;;5094226;28;20126;-65
2022/03/12 09:53:41;;;;;;;18.17;9.65;;;;;;;;;;5094348;28;20185;-65
2022/03/12 09:56:07;;;;;;;17.35;9.82;;;;;;;;;;5093287;28;20075;-65
2022/03/12 09:58:33;;;;;;;14.82;9.43;;;;;;;;;;5094248;28;20047;-65
2022/03/12 10:00:59;;;;;;;18.05;10.10;;;;;;;;;;5094261;28;20093;-65
2022/03/12 10:03:26;;;;;;;15.80;9.55;;;;;;;;;;5093137;28;20127;-65
2022/03/12 10:05:52;;;;;;;13.27;9.35;;;;;;;;;;5093710;28;20059;-65
2022/03/12 10:08:18;;;;;;;16.02;9.43;;;;;;;;;;5093668;28;20039;-65
2022/03/12 10:10:44;;;;;;;18.77;9.50;;;;;;;;;;5093288;28;20047;-65
2022/03/12 10:13:11;;;;;;;19.52;9.93;;;;;;;;;;5093724;28;20144;-65
2022/03/12 10:15:37;;;;;;;15.00;9.90;;;;;;;;;;5093735;28;20115;-65
2022/03/12 10:18:03;;;;;;;12.77;9.07;;;;;;;;;;5093128;28;20067;-65
2022/03/12 10:20:30;;;;;;;13.93;8.95;;;;;;;;;;5093783;28;20111;-65
2022/03/12 10:22:56;;;;;;;13.48;8.13;;;;;;;;;;5093642;28;20632;-65
2022/03/12 10:25:23;;;;;;;14.73;9.13;;;;;;;;;;5093047;28;20051;-65
2022/03/12 10:27:49;;;;;;;12.65;8.52;;;;;;;;;;5093512;28;20051;-65
2022/03/12 10:30:16;;;;;;;15.27;8.80;;;;;;;;;;5093243;28;20127;-65
2022/03/12 10:32:46;;;;;;;11.73;8.10;;;;;;;;;;5092844;28;20627;-65
2022/03/12 10:35:14;;;;;;;12.68;7.90;;;;;;;;;;5073068;28;20071;-65
2022/03/12 10:37:40;;;;;;;11.27;7.70;;;;;;;;;;5072904;28;20048;-65
2022/03/12 10:40:15;;;;;;;10.52;6.57;;;;;;;;;;5072576;28;20483;-65
2022/03/12 10:42:46;;;;;;;10.60;6.70;;;;;;;;;;5072958;28;20391;-65
2022/03/12 10:45:17;;;;;;;11.57;7.90;;;;;;;;;;5072837;28;20032;-65
2022/03/12 10:47:44;;;;;;;9.52;7.30;;;;;;;;;;5072227;28;20146;-65
2022/03/12 10:50:16;;;;;;;11.07;7.20;;;;;;;;;;5073094;28;20593;-65
2022/03/12 10:52:46;;;;;;;9.63;7.00;;;;;;;;;;5071603;28;20040;-65
2022/03/12 10:55:15;;;;;;;11.32;7.38;;;;;;;;;;5072254;28;20645;-65
2022/03/12 10:57:53;;;;;;;13.15;7.35;;;;;;;;;;5072795;28;20561;-65
2022/03/12 11:00:19;;;;;;;12.30;7.15;;;;;;;;;;5072265;28;20059;-65
2022/03/12 11:02:53;;;;;;;9.02;6.50;;;;;;;;;;5071508;28;20470;-65
2022/03/12 11:05:25;;;;;;;9.73;6.93;;;;;;;;;;5072502;28;20045;-65
2022/03/12 11:07:51;;;;;;;12.18;7.03;;;;;;;;;;5072426;28;20438;-65
2022/03/12 11:10:28;;;;;;;9.90;6.63;;;;;;;;;;5071904;28;20037;-65
2022/03/12 11:12:55;;;;;;;11.50;7.47;;;;;;;;;;5072464;28;20475;-65
2022/03/12 11:15:22;;;;;;;15.30;7.10;;;;;;;;;;5072354;28;20036;-65
2022/03/12 11:17:49;;;;;;;12.98;7.28;;;;;;;;;;5071550;28;20039;-65
2022/03/12 11:20:28;;;;;;;9.48;7.10;;;;;;;;;;5072307;28;20480;-65
2022/03/12 11:23:07;;;;;;;9.43;6.97;;;;;;;;;;5072066;28;20395;-65
2022/03/12 11:25:37;;;;;;;9.35;6.70;;;;;;;;;;5071475;28;20127;-66
2022/03/12 11:28:17;;;;;;;11.50;6.95;;;;;;;;;;5071835;28;20040;-66
2022/03/12 11:30:43;;;;;;;10.73;7.20;;;;;;;;;;5071678;28;20542;-66
2022/03/12 11:33:09;;;;;;;10.23;7.45;;;;;;;;;;5074924;28;20075;-66
2022/03/12 11:35:36;;;;;;;9.90;6.32;;;;;;;;;;5091959;28;20040;-66
2022/03/12 11:38:11;;;;;;;14.25;6.47;;;;;;;;;;5092188;28;20471;-66
2022/03/12 11:40:42;;;;;;;14.32;7.55;;;;;;;;;;5092158;28;20474;-66
2022/03/12 11:43:26;;;;;;;9.45;6.75;;;;;;;;;;5091817;28;20036;-66
2022/03/12 11:45:54;;;;;;;12.27;6.80;;;;;;;;;;5091413;28;20036;-66
2022/03/12 11:48:20;;;;;;;10.32;7.25;;;;;;;;;;5092180;28;20075;-66
2022/03/12 11:50:46;;;;;;;12.40;6.57;;;;;;;;;;5092304;28;20040;-66
2022/03/12 11:53:16;;;;;;;10.30;7.13;;;;;;;;;;5091467;28;20039;-66
2022/03/12 11:55:42;;;;;;;13.38;7.88;;;;;;;;;;5092019;28;20036;-66
2022/03/12 11:58:08;;;;;;;10.10;7.38;;;;;;;;;;5091898;28;20109;-66
2022/03/12 12:00:34;;;;;;;9.70;7.15;;;;;;;;;;5091161;28;20455;-66
2022/03/12 12:03:01;;;;;;;13.45;8.20;;;;;;;;;;5091736;28;20096;-66
2022/03/12 12:05:30;;;;;;;14.00;7.85;;;;;;;;;;5091864;28;20047;-66
2022/03/12 12:07:56;;;;;;;14.95;8.05;;;;;;;;;;5091026;28;20494;-66
2022/03/12 12:10:32;;;;;;;12.40;7.55;;;;;;;;;;5091597;28;20065;-66
2022/03/12 12:12:58;;;;;;;11.27;7.45;;;;;;;;;;5091318;28;20105;-66
2022/03/12 12:15:34;;;;;;;10.90;7.85;;;;;;;;;;5091139;28;20036;-66
2022/03/12 12:18:03;;;;;;;13.48;7.75;;;;;;;;;;5091672;28;20044;-66
2022/03/12 12:20:30;;;;;;;12.25;7.32;;;;;;;;;;5091283;28;20047;-66
2022/03/12 12:22:57;;;;;;;10.30;7.07;;;;;;;;;;5090643;28;20044;-66
2022/03/12 12:25:25;;;;;;;8.98;6.68;;;;;;;;;;5091629;28;20047;-66
2022/03/12 12:27:53;;;;;;;9.35;7.15;;;;;;;;;;5091441;28;20115;-66
2022/03/12 12:30:41;;;;;;;10.75;7.10;;;;;;;;;;5090576;28;20059;-66
2022/03/12 12:33:22;;;;;;;11.93;7.53;;;;;;;;;;5088483;28;20036;-66
2022/03/12 12:35:50;;;;;;;11.30;6.82;;;;;;;;;;5071401;28;20048;-66
2022/03/12 12:38:18;;;;;;;12.27;7.43;;;;;;;;;;5070487;28;20037;-66
2022/03/12 12:40:46;;;;;;;8.90;6.50;;;;;;;;;;5071133;28;20101;-66
2022/03/12 12:43:13;;;;;;;9.52;6.45;;;;;;;;;;5071298;28;20070;-66
2022/03/12 12:45:55;;;;;;;9.55;6.18;;;;;;;;;;5070345;28;20041;-66
2022/03/12 12:48:31;;;;;;;14.38;6.22;;;;;;;;;;5070982;28;20140;-66
2022/03/12 12:51:17;;;;;;;10.35;6.95;;;;;;;;;;5071341;28;20363;-66
2022/03/12 12:53:45;;;;;;;12.80;7.32;;;;;;;;;;5070209;28;20058;-66
2022/03/12 12:56:21;;;;;;;8.55;6.57;;;;;;;;;;5071186;28;20049;-66
2022/03/12 12:58:47;;;;;;;9.05;6.00;;;;;;;;;;5070975;28;20105;-66
2022/03/12 13:01:17;;;;;;;10.82;6.25;;;;;;;;;;5070576;28;20132;-66
2022/03/12 13:03:47;;;;;;;10.70;6.80;;;;;;;;;;5070794;28;20421;-66
2022/03/12 13:06:13;;;;;;;8.43;6.25;;;;;;;;;;5071021;28;20688;-66
2022/03/12 13:08:43;;;;;;;9.80;6.32;;;;;;;;;;5070138;28;20036;-66
2022/03/12 13:11:25;;;;;;;9.57;6.13;;;;;;;;;;5070938;28;20041;-66
2022/03/12 13:13:55;;;;;;;10.00;5.88;;;;;;;;;;5071169;28;20045;-66
2022/03/12 13:16:22;;;;;;;8.75;5.93;;;;;;;;;;5070324;28;20085;-66
2022/03/12 13:18:48;;;;;;;8.48;5.63;;;;;;;;;;5070999;28;20040;-66
2022/03/12 13:21:27;;;;;;;8.80;5.68;;;;;;;;;;5070948;28;20040;-66
2022/03/12 13:23:53;;;;;;;8.35;5.07;;;;;;;;;;5070303;28;20044;-66
2022/03/12 13:26:21;;;;;;;6.60;4.30;;;;;;;;;;5074413;28;20044;-66
2022/03/12 13:28:51;;;;;;;8.10;4.97;;;;;;;;;;5074562;28;20036;-66
2022/03/12 13:31:20;;;;;;;7.55;4.60;;;;;;;;;;5073568;28;20052;-66
2022/03/12 13:33:50;;;;;;;11.82;4.97;;;;;;;;;;5081227;28;20036;-66
2022/03/12 13:36:23;;;;;;;7.90;4.85;;;;;;;;;;5094401;28;20441;-66
2022/03/12 13:38:51;;;;;;;11.57;4.63;;;;;;;;;;5093980;28;20051;-66
2022/03/12 13:41:18;;;;;;;7.88;4.88;;;;;;;;;;5094363;28;20036;-66
2022/03/12 13:43:45;;;;;;;8.57;5.18;;;;;;;;;;5094256;28;20051;-66
2022/03/12 13:46:12;;;;;;;6.32;4.72;;;;;;;;;;5093656;28;20379;-66
2022/03/12 13:48:38;;;;;;;8.05;4.75;;;;;;;;;;5094314;28;20509;-66
2022/03/12 13:51:04;;;;;;;8.57;4.75;;;;;;;;;;5094014;28;20043;-66
2022/03/12 13:53:30;;;;;;;7.35;5.30;;;;;;;;;;5093426;28;20542;-66
2022/03/12 13:56:17;;;;;;;8.27;5.03;;;;;;;;;;5092457;28;20046;-66
2022/03/12 13:58:44;;;;;;;9.55;5.18;;;;;;;;;;5094183;28;20055;-66
2022/03/12 14:01:11;;;;;;;8.25;4.90;;;;;;;;;;5092491;28;20398;-66
2022/03/12 14:03:45;;;;;;;11.75;5.45;;;;;;;;;;5093994;28;20043;-66
2022/03/12 14:06:26;;;;;;;11.60;5.18;;;;;;;;;;5092197;28;20529;-66
2022/03/12 14:08:52;;;;;;;10.85;6.93;;;;;;;;;;5094080;28;20044;-66
2022/03/12 14:11:29;;;;;;;8.77;5.22;;;;;;;;;;5093871;28;20036;-66
2022/03/12 14:13:58;;;;;;;7.85;5.00;;;;;;;;;;5093243;28;20040;-66
2022/03/12 14:16:25;;;;;;;7.47;4.25;;;;;;;;;;5093567;28;20032;-66
2022/03/12 14:18:55;;;;;;;8.48;4.57;;;;;;;;;;5092592;28;20059;-66
2022/03/12 14:21:36;;;;;;;7.93;4.95;;;;;;;;;;5093214;28;20058;-66
2022/03/12 14:24:15;;;;;;;7.70;4.90;;;;;;;;;;5093728;28;20048;-66
2022/03/12 14:26:44;;;;;;;8.30;5.47;;;;;;;;;;5093510;28;20048;-66
2022/03/12 14:29:10;;;;;;;7.93;5.35;;;;;;;;;;5092939;28;20077;-66
2022/03/12 14:31:37;;;;;;;10.00;5.15;;;;;;;;;;5093276;28;20127;-66
2022/03/12 14:34:07;;;;;;;8.30;4.97;;;;;;;;;;5082727;28;20040;-66
2022/03/12 14:36:33;;;;;;;8.35;5.25;;;;;;;;;;5070033;28;20170;-66
2022/03/12 14:39:03;;;;;;;10.10;5.40;;;;;;;;;;5073268;28;20518;-66